createdAt,value
2018-08-17T00:00:07.490Z,22.30
2018-08-17T00:02:35.788Z,22.30
2018-08-17T00:05:04.138Z,22.30
2018-08-17T00:07:32.388Z,22.30
2018-08-17T00:10:00.590Z,22.30
2018-08-17T00:12:28.756Z,22.20
2018-08-17T00:14:57.151Z,22.30
2018-08-17T00:17:25.397Z,22.30
2018-08-17T00:19:54.007Z,22.30
2018-08-17T00:22:22.271Z,22.20
2018-08-17T00:24:50.631Z,22.30
2018-08-17T00:27:19.500Z,22.20
2018-08-17T00:29:47.747Z,22.20
2018-08-17T00:32:16.012Z,22.20
2018-08-17T00:34:44.170Z,22.20
2018-08-17T00:37:12.614Z,22.10
2018-08-17T00:39:40.991Z,22.10
2018-08-17T00:42:09.154Z,22.10
2018-08-17T00:44:37.576Z,22.10
2018-08-17T00:47:06.187Z,22.10
2018-08-17T00:49:34.698Z,22.00
2018-08-17T00:52:03.229Z,22.00
2018-08-17T00:54:31.530Z,22.00
2018-08-17T00:56:59.990Z,22.00
2018-08-17T00:59:29.112Z,21.90
2018-08-17T01:01:57.536Z,21.90
2018-08-17T01:04:25.784Z,21.90
2018-08-17T01:06:54.402Z,21.90
2018-08-17T01:09:22.703Z,22.00
2018-08-17T01:11:51.190Z,22.00
2018-08-17T01:14:20.227Z,22.00
2018-08-17T01:16:48.605Z,22.00
2018-08-17T01:19:17.554Z,22.00
2018-08-17T01:21:46.120Z,22.00
2018-08-17T01:24:14.371Z,22.00
2018-08-17T01:26:42.666Z,22.00
2018-08-17T01:29:11.371Z,22.10
2018-08-17T01:31:39.654Z,22.10
2018-08-17T01:34:07.972Z,22.00
2018-08-17T01:36:36.190Z,22.10
2018-08-17T01:39:08.536Z,22.10
2018-08-17T01:41:36.900Z,22.10
2018-08-17T01:44:05.562Z,22.10
2018-08-17T01:46:33.937Z,22.00
2018-08-17T01:49:02.459Z,22.00
2018-08-17T01:51:31.894Z,21.90
2018-08-17T01:54:00.080Z,21.80
2018-08-17T01:56:28.448Z,21.80
2018-08-17T01:58:56.955Z,21.70
2018-08-17T02:01:25.203Z,21.60
2018-08-17T02:03:53.538Z,21.60
2018-08-17T02:06:21.898Z,21.60
2018-08-17T02:08:50.230Z,21.60
2018-08-17T02:11:18.530Z,21.60
2018-08-17T02:13:46.775Z,21.70
2018-08-17T02:16:16.024Z,21.70
2018-08-17T02:18:44.239Z,21.60
2018-08-17T02:21:12.731Z,21.50
2018-08-17T02:23:41.149Z,21.50
2018-08-17T02:26:09.760Z,21.50
2018-08-17T02:28:37.965Z,21.50
2018-08-17T02:31:06.193Z,21.50
2018-08-17T02:33:34.418Z,21.50
2018-08-17T02:36:02.877Z,21.50
2018-08-17T02:38:31.273Z,21.50
2018-08-17T02:40:59.762Z,21.50
2018-08-17T02:43:28.126Z,21.50
2018-08-17T02:45:56.649Z,21.50
2018-08-17T02:48:25.131Z,21.50
2018-08-17T02:50:53.440Z,21.60
2018-08-17T02:53:21.813Z,21.60
2018-08-17T02:55:50.175Z,21.60
2018-08-17T02:58:18.413Z,21.60
2018-08-17T03:00:53.543Z,21.50
2018-08-17T03:03:21.833Z,21.50
2018-08-17T03:05:50.053Z,21.40
2018-08-17T03:08:18.490Z,21.50
2018-08-17T03:10:47.385Z,21.40
2018-08-17T03:13:16.013Z,21.30
2018-08-17T03:15:44.249Z,21.30
2018-08-17T03:18:12.592Z,21.30
2018-08-17T03:20:40.734Z,21.30
2018-08-17T03:23:09.124Z,21.30
2018-08-17T03:25:37.378Z,21.20
2018-08-17T03:28:05.930Z,21.20
2018-08-17T03:30:34.200Z,21.10
2018-08-17T03:33:02.558Z,21.10
2018-08-17T03:35:31.126Z,21.00
2018-08-17T03:38:00.216Z,21.00
2018-08-17T03:40:28.709Z,21.00
2018-08-17T03:42:57.812Z,21.00
2018-08-17T03:45:26.057Z,20.90
2018-08-17T03:47:54.432Z,20.90
2018-08-17T03:50:22.677Z,20.90
2018-08-17T03:52:51.076Z,20.80
2018-08-17T03:55:19.248Z,20.80
2018-08-17T03:57:47.636Z,20.80
2018-08-17T04:00:20.377Z,20.70
2018-08-17T04:02:48.867Z,20.70
2018-08-17T04:05:17.087Z,20.70
2018-08-17T04:07:45.259Z,20.80
2018-08-17T04:10:13.476Z,20.70
2018-08-17T04:12:41.691Z,20.70
2018-08-17T04:15:10.335Z,20.70
2018-08-17T04:17:38.945Z,20.60
2018-08-17T04:20:08.350Z,20.60
2018-08-17T04:22:36.497Z,20.50
2018-08-17T04:25:04.975Z,20.50
2018-08-17T04:27:33.385Z,20.40
2018-08-17T04:30:03.803Z,20.40
2018-08-17T04:32:31.970Z,20.40
2018-08-17T04:35:00.194Z,20.50
2018-08-17T04:37:29.940Z,20.50
2018-08-17T04:39:58.216Z,20.50
2018-08-17T04:42:26.549Z,20.50
2018-08-17T04:44:54.914Z,20.50
2018-08-17T04:47:23.059Z,20.50
2018-08-17T04:49:51.741Z,20.50
2018-08-17T04:52:20.117Z,20.60
2018-08-17T04:54:48.650Z,20.50
2018-08-17T04:57:16.875Z,20.60
2018-08-17T04:59:46.042Z,20.60
2018-08-17T05:02:14.226Z,20.60
2018-08-17T05:04:43.175Z,20.60
2018-08-17T05:07:11.840Z,20.70
2018-08-17T05:09:40.206Z,20.70
2018-08-17T05:12:09.046Z,20.70
2018-08-17T05:14:37.443Z,20.70
2018-08-17T05:17:05.645Z,20.70
2018-08-17T05:19:33.861Z,20.80
2018-08-17T05:22:01.984Z,20.80
2018-08-17T05:24:31.072Z,20.90
2018-08-17T05:26:59.342Z,20.90
2018-08-17T05:29:27.838Z,21.00
2018-08-17T05:31:56.316Z,21.00
2018-08-17T05:34:25.601Z,21.10
2018-08-17T05:36:53.828Z,21.20
2018-08-17T05:39:22.047Z,21.20
2018-08-17T05:41:50.279Z,21.30
2018-08-17T05:44:18.540Z,21.40
2018-08-17T05:46:46.701Z,21.70
2018-08-17T05:49:14.889Z,22.10
2018-08-17T05:51:43.159Z,22.80
2018-08-17T05:54:11.412Z,23.60
2018-08-17T05:56:39.752Z,24.50
2018-08-17T05:59:08.020Z,25.30
2018-08-17T06:01:36.251Z,25.80
2018-08-17T06:04:04.859Z,26.40
2018-08-17T06:06:33.218Z,26.90
2018-08-17T06:09:05.659Z,27.20
2018-08-17T06:11:35.721Z,27.40
2018-08-17T06:14:05.207Z,27.80
2018-08-17T06:16:33.847Z,28.30
2018-08-17T06:19:02.154Z,28.50
2018-08-17T06:21:30.451Z,28.60
2018-08-17T06:23:58.686Z,28.80
2018-08-17T06:26:27.188Z,29.20
2018-08-17T06:28:55.344Z,29.60
2018-08-17T06:31:25.176Z,30.00
2018-08-17T06:33:53.524Z,30.50
2018-08-17T06:36:21.860Z,30.90
2018-08-17T06:38:50.155Z,30.90
2018-08-17T06:41:18.347Z,31.00
2018-08-17T06:43:46.677Z,32.20
2018-08-17T06:46:14.881Z,32.70
2018-08-17T06:48:43.304Z,32.70
2018-08-17T06:51:11.591Z,33.10
2018-08-17T06:53:39.701Z,33.40
2018-08-17T06:56:07.966Z,33.20
2018-08-17T06:58:36.230Z,33.70
2018-08-17T07:01:04.555Z,34.10
2018-08-17T07:03:32.774Z,33.50
2018-08-17T07:06:01.060Z,32.90
2018-08-17T07:08:29.961Z,34.00
2018-08-17T07:10:58.356Z,34.50
2018-08-17T07:13:27.237Z,34.60
2018-08-17T07:15:55.736Z,34.70
2018-08-17T07:18:23.900Z,35.10
2018-08-17T07:20:52.152Z,34.90
2018-08-17T07:23:20.295Z,35.30
2018-08-17T07:25:48.716Z,34.70
2018-08-17T07:28:17.335Z,35.70
2018-08-17T07:30:45.452Z,36.40
2018-08-17T07:33:13.776Z,36.70
2018-08-17T07:35:41.976Z,35.70
2018-08-17T07:38:10.194Z,36.70
2018-08-17T07:40:38.605Z,37.20
2018-08-17T07:43:07.458Z,37.50
2018-08-17T07:45:35.801Z,37.90
2018-08-17T07:48:04.303Z,37.90
2018-08-17T07:50:32.572Z,38.60
2018-08-17T07:53:01.263Z,38.90
2018-08-17T07:55:29.589Z,37.30
2018-08-17T07:58:00.835Z,37.90
2018-08-17T08:00:29.214Z,37.80
2018-08-17T08:02:57.593Z,38.10
2018-08-17T08:05:25.861Z,38.50
2018-08-17T08:07:54.118Z,38.70
2018-08-17T08:10:22.327Z,38.50
2018-08-17T08:12:50.975Z,37.30
2018-08-17T08:15:19.226Z,37.00
2018-08-17T08:17:47.464Z,38.60
2018-08-17T08:20:33.628Z,40.00
2018-08-17T08:23:20.813Z,40.90
2018-08-17T08:25:50.109Z,41.40
2018-08-17T08:28:20.533Z,40.60
2018-08-17T08:30:49.238Z,40.80
2018-08-17T08:33:18.089Z,41.90
2018-08-17T08:35:47.466Z,41.50
2018-08-17T08:38:16.114Z,42.60
2018-08-17T08:40:44.985Z,43.10
2018-08-17T08:43:14.203Z,43.90
2018-08-17T08:45:42.586Z,44.60
2018-08-17T08:48:11.028Z,45.00
2018-08-17T08:50:39.710Z,44.30
2018-08-17T08:53:09.842Z,44.10
2018-08-17T08:55:38.208Z,45.10
2018-08-17T08:58:07.520Z,46.40
2018-08-17T09:00:36.758Z,47.00
2018-08-17T09:03:06.431Z,47.00
2018-08-17T09:05:37.358Z,47.70
2018-08-17T09:08:06.394Z,47.90
2018-08-17T09:10:35.226Z,48.30
2018-08-17T09:13:04.317Z,48.80
2018-08-17T09:15:32.451Z,48.70
2018-08-17T09:18:00.843Z,49.30
2018-08-17T09:20:29.181Z,48.70
2018-08-17T09:22:57.627Z,49.00
2018-08-17T09:25:25.958Z,49.30
2018-08-17T09:27:54.290Z,49.60
2018-08-17T09:30:27.260Z,49.30
2018-08-17T09:32:55.745Z,49.90
2018-08-17T09:35:24.069Z,49.90
2018-08-17T09:37:52.673Z,49.80
2018-08-17T09:40:20.942Z,49.90
2018-08-17T09:42:49.272Z,50.50
2018-08-17T09:45:17.471Z,48.70
2018-08-17T09:47:45.626Z,49.00
2018-08-17T09:50:14.818Z,49.00
2018-08-17T09:52:43.421Z,49.20
2018-08-17T09:55:11.863Z,47.80
2018-08-17T09:57:40.087Z,47.90
2018-08-17T10:00:09.905Z,49.40
2018-08-17T10:02:43.876Z,50.60
2018-08-17T10:05:17.699Z,51.10
2018-08-17T10:07:51.731Z,49.90
2018-08-17T10:10:22.601Z,50.90
2018-08-17T10:12:51.665Z,51.90
2018-08-17T10:15:21.073Z,52.10
2018-08-17T10:17:49.505Z,51.40
2018-08-17T10:20:19.020Z,50.90
2018-08-17T10:22:47.248Z,51.00
2018-08-17T10:25:17.336Z,49.50
2018-08-17T10:27:47.464Z,49.70
2018-08-17T10:30:16.320Z,49.60
2018-08-17T10:32:49.360Z,49.90
2018-08-17T10:35:24.926Z,49.50
2018-08-17T10:37:55.258Z,48.70
2018-08-17T10:40:24.325Z,49.10
2018-08-17T10:42:52.795Z,47.10
2018-08-17T10:45:22.531Z,47.80
2018-08-17T10:47:51.270Z,49.10
2018-08-17T10:50:20.625Z,49.30
2018-08-17T10:52:50.736Z,50.00
2018-08-17T10:55:19.507Z,48.50
2018-08-17T10:57:47.889Z,48.40
2018-08-17T11:00:20.305Z,48.30
2018-08-17T11:02:48.752Z,45.90
2018-08-17T11:05:17.800Z,44.30
2018-08-17T11:07:47.230Z,43.60
2018-08-17T11:10:15.606Z,45.50
2018-08-17T11:12:45.127Z,45.30
2018-08-17T11:15:13.698Z,44.50
2018-08-17T11:17:43.848Z,43.80
2018-08-17T11:20:14.050Z,45.40
2018-08-17T11:22:42.840Z,46.70
2018-08-17T11:25:11.694Z,46.80
2018-08-17T11:27:40.000Z,46.80
2018-08-17T11:30:12.574Z,48.70
2018-08-17T11:32:42.004Z,49.40
2018-08-17T11:35:10.270Z,48.30
2018-08-17T11:37:38.649Z,46.00
2018-08-17T11:40:09.411Z,45.30
2018-08-17T11:42:40.925Z,45.70
2018-08-17T11:45:21.717Z,47.10
2018-08-17T11:47:50.574Z,47.50
2018-08-17T11:50:20.855Z,47.40
2018-08-17T11:52:54.399Z,46.30
2018-08-17T11:55:24.101Z,44.40
2018-08-17T11:57:52.643Z,43.60
2018-08-17T12:00:21.195Z,43.60
2018-08-17T12:02:49.405Z,43.80
2018-08-17T12:05:17.655Z,43.60
2018-08-17T12:07:46.526Z,43.80
2018-08-17T12:10:14.920Z,44.90
2018-08-17T12:12:43.935Z,45.80
2018-08-17T12:15:12.887Z,45.50
2018-08-17T12:17:41.106Z,44.40
2018-08-17T12:20:10.761Z,44.30
2018-08-17T12:22:39.300Z,44.10
2018-08-17T12:25:08.758Z,44.40
2018-08-17T12:27:36.969Z,43.60
2018-08-17T12:30:07.542Z,44.30
2018-08-17T12:32:36.590Z,43.90
2018-08-17T12:35:05.558Z,45.40
2018-08-17T12:37:34.284Z,46.90
2018-08-17T12:40:03.270Z,48.20
2018-08-17T12:42:37.148Z,47.70
2018-08-17T12:45:11.803Z,48.90
2018-08-17T12:47:41.314Z,49.90
2018-08-17T12:50:09.594Z,49.10
2018-08-17T12:52:37.974Z,49.40
2018-08-17T12:55:06.196Z,48.80
2018-08-17T12:57:41.119Z,47.90
2018-08-17T13:00:10.336Z,45.50
2018-08-17T13:02:38.932Z,44.90
2018-08-17T13:05:08.614Z,44.90
2018-08-17T13:07:38.329Z,45.50
2018-08-17T13:10:06.642Z,45.60
2018-08-17T13:12:35.357Z,45.70
2018-08-17T13:15:05.030Z,45.30
2018-08-17T13:17:41.140Z,45.80
2018-08-17T13:20:10.091Z,45.30
2018-08-17T13:22:40.441Z,44.10
2018-08-17T13:25:08.749Z,43.20
2018-08-17T13:27:37.566Z,42.80
2018-08-17T13:30:10.085Z,43.00
2018-08-17T13:32:38.329Z,42.30
2018-08-17T13:35:07.195Z,42.50
2018-08-17T13:37:35.815Z,42.80
2018-08-17T13:40:05.636Z,43.80
2018-08-17T13:42:35.615Z,44.80
2018-08-17T13:45:05.671Z,43.40
2018-08-17T13:47:36.530Z,41.30
2018-08-17T13:50:05.503Z,40.40
2018-08-17T13:52:34.511Z,40.50
2018-08-17T13:55:04.783Z,41.20
2018-08-17T13:57:35.059Z,40.90
2018-08-17T14:00:06.923Z,40.70
2018-08-17T14:02:40.239Z,40.50
2018-08-17T14:05:12.779Z,40.10
2018-08-17T14:07:44.843Z,39.80
2018-08-17T14:10:16.289Z,40.10
2018-08-17T14:12:49.407Z,40.50
2018-08-17T14:15:22.379Z,41.80
2018-08-17T14:17:51.840Z,41.70
2018-08-17T14:20:22.071Z,40.80
2018-08-17T14:22:53.078Z,39.70
2018-08-17T14:25:26.363Z,39.60
2018-08-17T14:27:58.397Z,39.30
2018-08-17T14:30:27.089Z,38.40
2018-08-17T14:32:56.416Z,37.80
2018-08-17T14:35:25.604Z,37.30
2018-08-17T14:37:54.641Z,36.90
2018-08-17T14:40:23.542Z,36.30
2018-08-17T14:42:52.187Z,35.80
2018-08-17T14:45:20.503Z,35.80
2018-08-17T14:47:48.966Z,35.70
2018-08-17T14:50:17.863Z,35.40
2018-08-17T14:52:46.806Z,35.00
2018-08-17T14:55:15.550Z,34.50
2018-08-17T14:57:44.632Z,34.20
2018-08-17T15:00:14.093Z,34.00
2018-08-17T15:02:42.454Z,33.90
2018-08-17T15:05:12.289Z,33.90
2018-08-17T15:07:40.980Z,33.60
2018-08-17T15:10:11.732Z,33.50
2018-08-17T15:12:41.498Z,33.30
2018-08-17T15:15:10.907Z,33.20
2018-08-17T15:17:40.495Z,33.30
2018-08-17T15:20:10.547Z,33.30
2018-08-17T15:22:38.876Z,33.20
2018-08-17T15:25:07.172Z,33.20
2018-08-17T15:27:35.473Z,33.40
2018-08-17T15:30:05.445Z,33.30
2018-08-17T15:32:33.629Z,33.40
2018-08-17T15:35:01.889Z,33.40
2018-08-17T15:37:31.044Z,33.10
2018-08-17T15:39:59.857Z,33.00
2018-08-17T15:42:28.338Z,32.80
2018-08-17T15:44:56.538Z,32.60
2018-08-17T15:47:24.832Z,32.70
2018-08-17T15:50:27.419Z,32.80
2018-08-17T15:52:55.836Z,33.00
2018-08-17T15:55:24.154Z,33.00
2018-08-17T15:57:52.398Z,32.80
2018-08-17T16:00:20.524Z,32.70
2018-08-17T16:02:48.726Z,32.60
2018-08-17T16:05:16.967Z,32.40
2018-08-17T16:07:45.205Z,32.30
2018-08-17T16:10:15.191Z,32.20
2018-08-17T16:12:43.913Z,32.00
2018-08-17T16:15:12.165Z,31.80
2018-08-17T16:17:40.328Z,31.60
2018-08-17T16:20:10.493Z,31.60
2018-08-17T16:22:39.048Z,31.80
2018-08-17T16:25:08.498Z,31.90
2018-08-17T16:27:36.810Z,31.90
2018-08-17T16:30:07.603Z,31.70
2018-08-17T16:32:35.848Z,31.60
2018-08-17T16:35:04.407Z,31.50
2018-08-17T16:37:32.842Z,31.40
2018-08-17T16:40:00.941Z,31.40
2018-08-17T16:42:35.028Z,31.40
2018-08-17T16:45:04.587Z,31.40
2018-08-17T16:47:32.718Z,31.30
2018-08-17T16:50:02.057Z,31.20
2018-08-17T16:52:30.289Z,31.20
2018-08-17T16:54:58.890Z,31.10
2018-08-17T16:57:27.410Z,30.90
2018-08-17T16:59:55.602Z,30.90
2018-08-17T17:02:23.852Z,30.70
2018-08-17T17:04:52.076Z,30.50
2018-08-17T17:07:25.152Z,30.30
2018-08-17T17:09:53.334Z,30.20
2018-08-17T17:12:21.501Z,30.20
2018-08-17T17:14:49.842Z,30.10
2018-08-17T17:17:18.010Z,30.00
2018-08-17T17:19:46.365Z,30.00
2018-08-17T17:22:14.510Z,30.00
2018-08-17T17:24:42.792Z,29.90
2018-08-17T17:27:10.978Z,29.80
2018-08-17T17:29:39.136Z,29.60
2018-08-17T17:32:07.316Z,29.50
2018-08-17T17:34:35.532Z,29.30
2018-08-17T17:37:03.762Z,29.20
2018-08-17T17:39:32.044Z,29.10
2018-08-17T17:42:00.593Z,29.00
2018-08-17T17:44:28.910Z,29.00
2018-08-17T17:46:57.132Z,28.90
2018-08-17T17:49:25.431Z,28.90
2018-08-17T17:51:53.658Z,28.80
2018-08-17T17:54:24.802Z,28.70
2018-08-17T17:57:01.145Z,28.60
2018-08-17T17:59:29.341Z,28.60
2018-08-17T18:01:57.598Z,28.50
2018-08-17T18:04:30.944Z,28.50
2018-08-17T18:07:00.021Z,28.50
2018-08-17T18:09:28.261Z,28.50
2018-08-17T18:11:56.996Z,28.50
2018-08-17T18:14:25.211Z,28.40
2018-08-17T18:16:53.978Z,28.30
2018-08-17T18:19:22.385Z,28.20
2018-08-17T18:21:50.546Z,28.10
2018-08-17T18:24:18.728Z,28.10
2018-08-17T18:26:49.073Z,28.00
2018-08-17T18:29:17.985Z,27.90
2018-08-17T18:31:46.223Z,27.80
2018-08-17T18:34:14.843Z,27.80
2018-08-17T18:36:43.070Z,27.80
2018-08-17T18:39:14.647Z,27.70
2018-08-17T18:41:42.899Z,27.70
2018-08-17T18:44:11.697Z,27.70
2018-08-17T18:46:39.959Z,27.70
2018-08-17T18:49:08.331Z,27.60
2018-08-17T18:51:36.485Z,27.60
2018-08-17T18:54:05.174Z,27.60
2018-08-17T18:56:33.517Z,27.50
2018-08-17T18:59:01.748Z,27.50
2018-08-17T19:01:29.893Z,27.50
2018-08-17T19:03:58.144Z,27.40
2018-08-17T19:06:26.364Z,27.40
2018-08-17T19:08:54.764Z,27.40
2018-08-17T19:11:23.008Z,27.40
2018-08-17T19:13:51.176Z,27.40
2018-08-17T19:16:19.389Z,27.30
2018-08-17T19:18:47.646Z,27.30
2018-08-17T19:21:15.906Z,27.20
2018-08-17T19:23:44.061Z,27.10
2018-08-17T19:26:12.312Z,26.90
2018-08-17T19:28:40.466Z,26.80
2018-08-17T19:31:08.672Z,26.60
2018-08-17T19:33:36.957Z,26.30
2018-08-17T19:36:05.237Z,26.10
2018-08-17T19:38:38.604Z,26.00
2018-08-17T19:41:06.888Z,25.90
2018-08-17T19:43:35.114Z,25.90
2018-08-17T19:46:03.358Z,25.90
2018-08-17T19:48:31.501Z,25.90
2018-08-17T19:50:59.766Z,25.70
2018-08-17T19:53:28.442Z,25.60
2018-08-17T19:55:56.902Z,25.50
2018-08-17T19:58:25.395Z,25.40
2018-08-17T20:00:53.644Z,25.20
2018-08-17T20:03:21.894Z,25.00
2018-08-17T20:05:50.822Z,24.90
2018-08-17T20:08:19.743Z,24.70
2018-08-17T20:10:48.098Z,24.60
2018-08-17T20:13:16.407Z,24.60
2018-08-17T20:15:44.589Z,24.50
2018-08-17T20:18:13.341Z,24.40
2018-08-17T20:20:41.618Z,24.30
2018-08-17T20:23:09.819Z,24.30
2018-08-17T20:25:38.750Z,24.20
2018-08-17T20:28:07.901Z,24.30
2018-08-17T20:30:36.165Z,24.30
2018-08-17T20:33:15.673Z,24.30
2018-08-17T20:35:43.865Z,24.30
2018-08-17T20:38:12.120Z,24.30
2018-08-17T20:40:40.310Z,24.30
2018-08-17T20:43:08.724Z,24.30
2018-08-17T20:45:36.808Z,24.20
2018-08-17T20:48:05.068Z,24.20
2018-08-17T20:50:33.258Z,24.00
2018-08-17T20:53:01.539Z,23.70
2018-08-17T20:55:29.729Z,23.50
2018-08-17T20:57:58.532Z,23.40
2018-08-17T21:00:28.542Z,23.30
2018-08-17T21:02:56.777Z,23.20
2018-08-17T21:05:25.388Z,23.10
2018-08-17T21:07:53.649Z,22.90
2018-08-17T21:10:21.905Z,22.90
2018-08-17T21:12:50.248Z,22.80
2018-08-17T21:15:18.742Z,22.80
2018-08-17T21:17:47.603Z,22.70
2018-08-17T21:20:15.813Z,22.60
2018-08-17T21:22:44.076Z,22.60
2018-08-17T21:25:12.337Z,22.60
2018-08-17T21:27:40.530Z,22.50
2018-08-17T21:30:09.268Z,22.50
2018-08-17T21:32:37.516Z,22.40
2018-08-17T21:35:06.742Z,22.40
2018-08-17T21:37:35.089Z,22.30
2018-08-17T21:40:04.198Z,22.30
2018-08-17T21:42:34.614Z,22.30
2018-08-17T21:45:02.852Z,22.40
2018-08-17T21:47:31.010Z,22.40
2018-08-17T21:50:09.701Z,22.40
2018-08-17T21:52:38.104Z,22.40
2018-08-17T21:55:06.446Z,22.50
2018-08-17T21:57:34.880Z,22.50
2018-08-17T22:00:04.399Z,22.50
2018-08-17T22:02:32.665Z,22.50
2018-08-17T22:05:00.884Z,22.40
2018-08-17T22:07:31.334Z,22.40
2018-08-17T22:09:59.600Z,22.30
2018-08-17T22:12:27.909Z,22.20
2018-08-17T22:14:56.362Z,22.20
2018-08-17T22:17:36.368Z,22.10
2018-08-17T22:20:08.046Z,22.10
2018-08-17T22:22:36.288Z,22.00
2018-08-17T22:25:13.404Z,22.00
2018-08-17T22:27:41.627Z,22.00
2018-08-17T22:30:24.798Z,21.90
2018-08-17T22:32:53.095Z,21.90
2018-08-17T22:35:22.214Z,21.80
2018-08-17T22:37:50.506Z,21.80
2018-08-17T22:40:18.701Z,21.80
2018-08-17T22:42:48.087Z,21.70
2018-08-17T22:45:16.523Z,21.70
2018-08-17T22:47:45.041Z,21.60
2018-08-17T22:50:13.273Z,21.60
2018-08-17T22:52:41.635Z,21.60
2018-08-17T22:55:10.052Z,21.60
2018-08-17T22:57:38.403Z,21.60
2018-08-17T23:00:24.414Z,21.60
2018-08-17T23:02:55.922Z,21.60
2018-08-17T23:05:28.515Z,21.50
2018-08-17T23:07:56.736Z,21.50
2018-08-17T23:10:26.102Z,21.50
2018-08-17T23:12:54.926Z,21.50
2018-08-17T23:15:23.480Z,21.50
2018-08-17T23:17:55.752Z,21.50
2018-08-17T23:20:29.653Z,21.60
2018-08-17T23:23:00.096Z,21.60
2018-08-17T23:25:28.801Z,21.60
2018-08-17T23:27:57.719Z,21.60
2018-08-17T23:30:26.135Z,21.60
2018-08-17T23:32:54.445Z,21.60
2018-08-17T23:35:22.720Z,21.60
2018-08-17T23:37:51.512Z,21.60
2018-08-17T23:40:20.599Z,21.60
2018-08-17T23:42:48.886Z,21.50
2018-08-17T23:45:17.810Z,21.50
2018-08-17T23:47:46.052Z,21.60
2018-08-17T23:50:15.140Z,21.60
2018-08-17T23:52:43.504Z,21.60
2018-08-17T23:55:17.772Z,21.60
2018-08-17T23:57:46.924Z,21.60
